sensor_id;sensor_type;location;lat;lon;timestamp;pressure;altitude;pressure_sealevel;temperature;humidity
69524;BME280;56723;42.694;23.286;2023-03-04T06:07:37;95044.75;;;2.03;100.00
69524;BME280;56723;42.694;23.286;2023-03-04T06:10:05;95041.13;;;2.05;100.00
69524;BME280;56723;42.694;23.286;2023-03-04T06:12:32;95049.66;;;2.17;100.00
69524;BME280;56723;42.694;23.286;2023-03-04T06:15:00;95047.09;;;2.28;100.00
69524;BME280;56723;42.694;23.286;2023-03-04T06:17:28;95042.84;;;2.40;100.00
69524;BME280;56723;42.694;23.286;2023-03-04T06:19:55;95041.41;;;2.47;100.00
69524;BME280;56723;42.694;23.286;2023-03-04T06:22:22;95042.47;;;2.89;100.00
69524;BME280;56723;42.694;23.286;2023-03-04T06:24:49;95060.13;;;3.03;100.00
69524;BME280;56723;42.694;23.286;2023-03-04T06:27:16;95048.97;;;3.04;100.00
69524;BME280;56723;42.694;23.286;2023-03-04T06:29:43;95052.56;;;3.13;100.00
69524;BME280;56723;42.694;23.286;2023-03-04T06:32:10;95051.84;;;3.22;100.00
69524;BME280;56723;42.694;23.286;2023-03-04T06:34:38;95052.63;;;3.34;100.00
69524;BME280;56723;42.694;23.286;2023-03-04T06:37:05;95038.88;;;3.35;100.00
69524;BME280;56723;42.694;23.286;2023-03-04T06:39:32;95051.72;;;3.56;100.00
69524;BME280;56723;42.694;23.286;2023-03-04T06:41:59;95053.22;;;3.69;100.00
69524;BME280;56723;42.694;23.286;2023-03-04T06:44:26;95054.66;;;3.83;100.00
69524;BME280;56723;42.694;23.286;2023-03-04T06:46:53;95060.44;;;3.96;100.00
69524;BME280;56723;42.694;23.286;2023-03-04T06:49:20;95061.56;;;4.03;100.00
69524;BME280;56723;42.694;23.286;2023-03-04T06:51:47;95055.38;;;4.06;100.00
69524;BME280;56723;42.694;23.286;2023-03-04T06:54:14;95056.25;;;4.16;100.00
69524;BME280;56723;42.694;23.286;2023-03-04T06:56:40;95056.81;;;4.20;100.00
69524;BME280;56723;42.694;23.286;2023-03-04T06:59:07;95055.75;;;4.22;100.00
69524;BME280;56723;42.694;23.286;2023-03-04T07:01:34;95066.41;;;4.27;100.00
69524;BME280;56723;42.694;23.286;2023-03-04T07:20:53;95066.75;;;4.34;100.00
69524;BME280;56723;42.694;23.286;2023-03-04T07:23:20;95072.56;;;4.36;100.00
69524;BME280;56723;42.694;23.286;2023-03-04T07:25:48;95078.00;;;4.42;100.00
69524;BME280;56723;42.694;23.286;2023-03-04T07:28:17;95061.00;;;4.41;100.00
69524;BME280;56723;42.694;23.286;2023-03-04T07:30:44;95052.09;;;4.45;100.00
69524;BME280;56723;42.694;23.286;2023-03-04T07:33:12;95067.56;;;4.65;100.00
69524;BME280;56723;42.694;23.286;2023-03-04T07:35:39;95069.38;;;4.74;100.00
69524;BME280;56723;42.694;23.286;2023-03-04T07:38:06;95063.88;;;4.78;100.00
69524;BME280;56723;42.694;23.286;2023-03-04T07:40:33;95060.91;;;4.83;100.00
69524;BME280;56723;42.694;23.286;2023-03-04T07:43:00;95068.03;;;5.00;100.00
69524;BME280;56723;42.694;23.286;2023-03-04T07:45:27;95073.81;;;5.02;100.00
69524;BME280;56723;42.694;23.286;2023-03-04T07:47:54;95069.09;;;4.98;100.00
69524;BME280;56723;42.694;23.286;2023-03-04T07:50:21;95064.91;;;4.97;100.00
69524;BME280;56723;42.694;23.286;2023-03-04T07:52:49;95069.63;;;5.01;100.00
69524;BME280;56723;42.694;23.286;2023-03-04T07:55:19;95066.28;;;5.10;100.00
69524;BME280;56723;42.694;23.286;2023-03-04T07:57:46;95064.97;;;5.16;100.00
69524;BME280;56723;42.694;23.286;2023-03-04T08:00:15;95071.03;;;5.25;100.00
69524;BME280;56723;42.694;23.286;2023-03-04T08:02:42;95057.97;;;5.37;100.00
69524;BME280;56723;42.694;23.286;2023-03-04T08:05:09;95061.06;;;5.41;98.64
69524;BME280;56723;42.694;23.286;2023-03-04T08:07:36;95041.59;;;5.38;98.87
69524;BME280;56723;42.694;23.286;2023-03-04T08:10:04;95050.41;;;5.45;97.18
69524;BME280;56723;42.694;23.286;2023-03-04T08:12:31;95059.19;;;5.43;96.44
69524;BME280;56723;42.694;23.286;2023-03-04T08:14:57;95047.84;;;5.36;96.09
69524;BME280;56723;42.694;23.286;2023-03-04T08:17:24;95054.59;;;5.37;95.79
69524;BME280;56723;42.694;23.286;2023-03-04T08:19:51;95053.09;;;5.34;96.31
69524;BME280;56723;42.694;23.286;2023-03-04T08:22:18;95059.72;;;5.37;96.69
69524;BME280;56723;42.694;23.286;2023-03-04T08:24:45;95059.44;;;5.40;97.46
69524;BME280;56723;42.694;23.286;2023-03-04T08:27:12;95056.06;;;5.39;98.62
69524;BME280;56723;42.694;23.286;2023-03-04T08:29:40;95047.41;;;5.31;95.99
69524;BME280;56723;42.694;23.286;2023-03-04T08:32:07;95052.94;;;5.16;95.81
69524;BME280;56723;42.694;23.286;2023-03-04T08:34:34;95058.75;;;5.18;96.52
69524;BME280;56723;42.694;23.286;2023-03-04T08:37:04;95040.59;;;5.10;96.99
69524;BME280;56723;42.694;23.286;2023-03-04T08:39:31;95028.88;;;5.17;96.96
69524;BME280;56723;42.694;23.286;2023-03-04T08:42:01;95047.16;;;5.34;96.79
69524;BME280;56723;42.694;23.286;2023-03-04T08:44:28;95055.94;;;5.41;97.14
69524;BME280;56723;42.694;23.286;2023-03-04T08:46:55;95045.66;;;5.41;97.08
69524;BME280;56723;42.694;23.286;2023-03-04T08:49:22;95046.22;;;5.54;96.52
69524;BME280;56723;42.694;23.286;2023-03-04T08:51:49;95038.66;;;5.52;94.50
69524;BME280;56723;42.694;23.286;2023-03-04T08:54:16;95040.53;;;5.60;94.18
69524;BME280;56723;42.694;23.286;2023-03-04T08:56:43;95039.31;;;5.64;94.06
69524;BME280;56723;42.694;23.286;2023-03-04T08:59:10;95044.31;;;5.75;92.73
69524;BME280;56723;42.694;23.286;2023-03-04T09:01:37;95036.50;;;5.86;92.48
69524;BME280;56723;42.694;23.286;2023-03-04T09:04:04;95040.03;;;5.95;89.54
69524;BME280;56723;42.694;23.286;2023-03-04T09:06:31;95039.09;;;6.06;88.89
69524;BME280;56723;42.694;23.286;2023-03-04T09:08:58;95035.28;;;6.10;87.23
69524;BME280;56723;42.694;23.286;2023-03-04T09:11:26;95041.63;;;6.15;87.48
69524;BME280;56723;42.694;23.286;2023-03-04T09:13:53;95027.16;;;6.14;86.97
69524;BME280;56723;42.694;23.286;2023-03-04T09:16:20;95028.50;;;6.28;86.48
69524;BME280;56723;42.694;23.286;2023-03-04T09:18:48;95029.13;;;6.40;87.89
69524;BME280;56723;42.694;23.286;2023-03-04T09:21:16;95026.09;;;6.54;86.97
69524;BME280;56723;42.694;23.286;2023-03-04T09:23:43;95022.56;;;6.65;86.97
69524;BME280;56723;42.694;23.286;2023-03-04T09:26:14;95028.22;;;6.68;84.63
69524;BME280;56723;42.694;23.286;2023-03-04T09:28:41;95015.00;;;6.63;84.74
69524;BME280;56723;42.694;23.286;2023-03-04T09:31:13;95025.38;;;6.71;84.86
69524;BME280;56723;42.694;23.286;2023-03-04T09:33:40;95016.13;;;6.78;84.80
69524;BME280;56723;42.694;23.286;2023-03-04T09:36:14;95020.06;;;6.82;85.37
69524;BME280;56723;42.694;23.286;2023-03-04T09:38:41;95013.00;;;6.84;85.39
69524;BME280;56723;42.694;23.286;2023-03-04T09:41:18;95011.59;;;6.90;85.56
69524;BME280;56723;42.694;23.286;2023-03-04T09:43:48;95011.56;;;7.00;86.34
69524;BME280;56723;42.694;23.286;2023-03-04T09:46:21;95009.31;;;7.14;85.19
69524;BME280;56723;42.694;23.286;2023-03-04T09:48:54;95006.16;;;7.20;84.51
69524;BME280;56723;42.694;23.286;2023-03-04T09:51:35;95009.31;;;7.14;85.08
69524;BME280;56723;42.694;23.286;2023-03-04T09:56:37;95004.56;;;7.19;83.88
69524;BME280;56723;42.694;23.286;2023-03-04T09:59:24;95011.22;;;7.12;83.06
69524;BME280;56723;42.694;23.286;2023-03-04T10:01:58;95000.63;;;7.15;84.29
69524;BME280;56723;42.694;23.286;2023-03-04T10:04:44;94995.25;;;7.09;83.91
69524;BME280;56723;42.694;23.286;2023-03-04T10:07:17;94993.56;;;7.17;83.55
69524;BME280;56723;42.694;23.286;2023-03-04T10:09:53;94991.66;;;7.19;82.93
69524;BME280;56723;42.694;23.286;2023-03-04T10:12:23;94983.91;;;7.02;83.83
69524;BME280;56723;42.694;23.286;2023-03-04T10:17:47;94981.38;;;6.92;84.23
69524;BME280;56723;42.694;23.286;2023-03-04T10:20:22;94986.53;;;6.92;84.03
69524;BME280;56723;42.694;23.286;2023-03-04T10:22:52;94975.53;;;6.90;86.16
69524;BME280;56723;42.694;23.286;2023-03-04T10:25:23;94983.84;;;7.11;85.70
69524;BME280;56723;42.694;23.286;2023-03-04T10:33:35;94959.13;;;7.54;82.29
69524;BME280;56723;42.694;23.286;2023-03-04T10:38:41;94962.72;;;7.79;83.27
69524;BME280;56723;42.694;23.286;2023-03-04T10:43:39;94949.59;;;7.90;80.45
69524;BME280;56723;42.694;23.286;2023-03-04T10:46:10;94937.00;;;7.69;81.77
69524;BME280;56723;42.694;23.286;2023-03-04T10:48:40;94944.09;;;7.67;80.71
69524;BME280;56723;42.694;23.286;2023-03-04T10:51:22;94939.22;;;7.64;82.99
69524;BME280;56723;42.694;23.286;2023-03-04T10:54:01;94938.06;;;7.58;83.08
69524;BME280;56723;42.694;23.286;2023-03-04T10:56:39;94942.47;;;7.66;83.71
69524;BME280;56723;42.694;23.286;2023-03-04T11:02:12;94925.25;;;7.49;82.30
69524;BME280;56723;42.694;23.286;2023-03-04T11:04:40;94923.91;;;7.45;83.88
69524;BME280;56723;42.694;23.286;2023-03-04T11:07:08;94923.47;;;7.49;82.97
69524;BME280;56723;42.694;23.286;2023-03-04T11:09:37;94912.63;;;7.46;82.18
69524;BME280;56723;42.694;23.286;2023-03-04T11:12:15;94904.56;;;7.41;83.13
69524;BME280;56723;42.694;23.286;2023-03-04T11:14:47;94899.91;;;7.26;82.08
69524;BME280;56723;42.694;23.286;2023-03-04T11:17:21;94892.41;;;7.15;83.13
69524;BME280;56723;42.694;23.286;2023-03-04T11:19:56;94892.13;;;7.18;85.62
69524;BME280;56723;42.694;23.286;2023-03-04T11:22:26;94894.69;;;7.18;85.00
69524;BME280;56723;42.694;23.286;2023-03-04T11:25:04;94895.00;;;7.33;85.72
69524;BME280;56723;42.694;23.286;2023-03-04T11:27:41;94870.25;;;7.22;85.13
69524;BME280;56723;42.694;23.286;2023-03-04T11:33:04;94872.91;;;7.30;87.29
69524;BME280;56723;42.694;23.286;2023-03-04T11:35:58;94875.88;;;7.44;87.16
69524;BME280;56723;42.694;23.286;2023-03-04T11:38:38;94877.13;;;7.57;86.66
69524;BME280;56723;42.694;23.286;2023-03-04T11:41:12;94872.13;;;7.56;83.86
69524;BME280;56723;42.694;23.286;2023-03-04T11:43:44;94866.59;;;7.51;83.86
69524;BME280;56723;42.694;23.286;2023-03-04T11:46:43;94862.84;;;7.45;83.46
69524;BME280;56723;42.694;23.286;2023-03-04T12:03:15;94849.34;;;7.69;83.80
69524;BME280;56723;42.694;23.286;2023-03-04T12:08:43;94839.59;;;7.63;82.12
69524;BME280;56723;42.694;23.286;2023-03-04T12:14:15;94843.06;;;7.97;82.39
69524;BME280;56723;42.694;23.286;2023-03-04T12:25:07;94829.97;;;7.99;78.95
69524;BME280;56723;42.694;23.286;2023-03-04T12:36:19;94812.19;;;8.22;79.71
69524;BME280;56723;42.694;23.286;2023-03-04T12:44:24;94805.56;;;8.19;77.10
69524;BME280;56723;42.694;23.286;2023-03-04T12:50:17;94805.72;;;8.18;77.91
69524;BME280;56723;42.694;23.286;2023-03-04T12:53:00;94798.31;;;8.15;77.09
69524;BME280;56723;42.694;23.286;2023-03-04T12:55:38;94799.72;;;8.09;78.34
69524;BME280;56723;42.694;23.286;2023-03-04T12:58:14;94788.94;;;8.14;78.30
69524;BME280;56723;42.694;23.286;2023-03-04T13:14:23;94764.47;;;8.26;78.37
69524;BME280;56723;42.694;23.286;2023-03-04T13:16:58;94762.66;;;8.18;77.54
69524;BME280;56723;42.694;23.286;2023-03-04T13:19:51;94753.13;;;8.19;77.03
69524;BME280;56723;42.694;23.286;2023-03-04T13:25:28;94746.00;;;8.05;77.47
69524;BME280;56723;42.694;23.286;2023-03-04T13:35:59;94756.22;;;8.22;77.39
69524;BME280;56723;42.694;23.286;2023-03-04T13:43:47;94744.13;;;8.23;76.79
69524;BME280;56723;42.694;23.286;2023-03-04T13:51:28;94745.56;;;8.25;76.54
69524;BME280;56723;42.694;23.286;2023-03-04T13:56:36;94738.16;;;8.22;76.71
69524;BME280;56723;42.694;23.286;2023-03-04T14:04:19;94735.88;;;8.19;79.46
69524;BME280;56723;42.694;23.286;2023-03-04T14:06:51;94729.25;;;8.17;78.78
69524;BME280;56723;42.694;23.286;2023-03-04T14:09:21;94727.97;;;8.13;77.74
69524;BME280;56723;42.694;23.286;2023-03-04T14:11:50;94727.97;;;8.13;79.23
69524;BME280;56723;42.694;23.286;2023-03-04T14:14:22;94727.97;;;8.13;78.06
69524;BME280;56723;42.694;23.286;2023-03-04T14:16:52;94725.09;;;8.16;79.09
69524;BME280;56723;42.694;23.286;2023-03-04T14:19:27;94721.34;;;8.18;77.60
69524;BME280;56723;42.694;23.286;2023-03-04T14:21:55;94712.41;;;7.88;78.64
69524;BME280;56723;42.694;23.286;2023-03-04T14:24:23;94714.69;;;7.91;79.71
69524;BME280;56723;42.694;23.286;2023-03-04T14:27:05;94719.84;;;7.91;79.11
69524;BME280;56723;42.694;23.286;2023-03-04T14:29:36;94713.03;;;7.82;79.18
69524;BME280;56723;42.694;23.286;2023-03-04T14:32:04;94713.38;;;7.87;79.20
69524;BME280;56723;42.694;23.286;2023-03-04T14:34:34;94711.13;;;7.92;79.97
69524;BME280;56723;42.694;23.286;2023-03-04T14:37:20;94708.56;;;8.00;80.35
69524;BME280;56723;42.694;23.286;2023-03-04T14:39:49;94700.66;;;8.02;79.94
69524;BME280;56723;42.694;23.286;2023-03-04T14:42:18;94696.50;;;8.09;79.82
69524;BME280;56723;42.694;23.286;2023-03-04T14:44:49;94698.94;;;8.19;78.28
69524;BME280;56723;42.694;23.286;2023-03-04T14:47:23;94704.44;;;8.24;78.67
69524;BME280;56723;42.694;23.286;2023-03-04T14:49:52;94703.00;;;8.29;77.92
69524;BME280;56723;42.694;23.286;2023-03-04T14:52:39;94701.53;;;8.27;77.79
69524;BME280;56723;42.694;23.286;2023-03-04T14:55:27;94694.75;;;8.26;77.98
69524;BME280;56723;42.694;23.286;2023-03-04T14:58:15;94690.53;;;8.17;78.41
69524;BME280;56723;42.694;23.286;2023-03-04T15:00:46;94695.38;;;8.12;78.55
69524;BME280;56723;42.694;23.286;2023-03-04T15:03:20;94693.44;;;8.06;78.87
69524;BME280;56723;42.694;23.286;2023-03-04T15:05:48;94686.50;;;8.06;79.01
69524;BME280;56723;42.694;23.286;2023-03-04T15:08:23;94688.72;;;8.01;79.42
69524;BME280;56723;42.694;23.286;2023-03-04T15:10:56;94682.75;;;7.92;79.88
69524;BME280;56723;42.694;23.286;2023-03-04T15:13:59;94681.81;;;8.02;80.28
69524;BME280;56723;42.694;23.286;2023-03-04T15:16:28;94680.34;;;7.99;79.82
69524;BME280;56723;42.694;23.286;2023-03-04T15:21:39;94677.28;;;7.95;80.23
69524;BME280;56723;42.694;23.286;2023-03-04T15:24:09;94679.53;;;7.90;80.56
69524;BME280;56723;42.694;23.286;2023-03-04T15:26:38;94673.72;;;7.88;80.28
69524;BME280;56723;42.694;23.286;2023-03-04T15:29:14;94671.47;;;7.93;83.57
69524;BME280;56723;42.694;23.286;2023-03-04T15:31:42;94664.38;;;7.95;80.44
69524;BME280;56723;42.694;23.286;2023-03-04T15:34:18;94658.28;;;7.96;80.58
69524;BME280;56723;42.694;23.286;2023-03-04T15:36:48;94653.41;;;8.02;82.78
69524;BME280;56723;42.694;23.286;2023-03-04T15:39:17;94632.78;;;7.93;80.76
69524;BME280;56723;42.694;23.286;2023-03-04T15:41:45;94647.94;;;8.05;80.60
69524;BME280;56723;42.694;23.286;2023-03-04T15:44:12;94651.50;;;8.04;83.33
69524;BME280;56723;42.694;23.286;2023-03-04T15:46:39;94649.56;;;8.06;81.64
69524;BME280;56723;42.694;23.286;2023-03-04T15:49:06;94644.25;;;8.07;81.53
69524;BME280;56723;42.694;23.286;2023-03-04T15:51:33;94646.84;;;8.07;80.93
69524;BME280;56723;42.694;23.286;2023-03-04T15:54:02;94646.84;;;8.07;81.44
69524;BME280;56723;42.694;23.286;2023-03-04T15:56:31;94641.16;;;8.04;81.17
69524;BME280;56723;42.694;23.286;2023-03-04T15:59:05;94650.19;;;7.99;81.02
69524;BME280;56723;42.694;23.286;2023-03-04T16:01:35;94644.38;;;7.89;80.93
69524;BME280;56723;42.694;23.286;2023-03-04T16:04:02;94643.06;;;7.85;81.66
69524;BME280;56723;42.694;23.286;2023-03-04T16:06:31;94644.50;;;7.80;81.90
69524;BME280;56723;42.694;23.286;2023-03-04T16:08:58;94641.28;;;7.78;82.44
69524;BME280;56723;42.694;23.286;2023-03-04T16:11:29;94636.75;;;7.72;83.98
69524;BME280;56723;42.694;23.286;2023-03-04T16:13:57;94638.03;;;7.68;83.16
69524;BME280;56723;42.694;23.286;2023-03-04T16:16:24;94646.25;;;7.71;83.66
69524;BME280;56723;42.694;23.286;2023-03-04T16:18:51;94642.72;;;7.72;83.77
69524;BME280;56723;42.694;23.286;2023-03-04T16:21:20;94642.72;;;7.72;84.14
69524;BME280;56723;42.694;23.286;2023-03-04T16:23:50;94650.09;;;7.67;82.68
69524;BME280;56723;42.694;23.286;2023-03-04T16:26:20;94641.88;;;7.55;82.81
69524;BME280;56723;42.694;23.286;2023-03-04T16:28:47;94651.97;;;7.49;83.89
69524;BME280;56723;42.694;23.286;2023-03-04T16:31:14;94641.97;;;7.38;84.22
69524;BME280;56723;42.694;23.286;2023-03-04T16:33:42;94644.84;;;7.35;84.19
69524;BME280;56723;42.694;23.286;2023-03-04T16:36:14;94645.13;;;7.32;84.52
69524;BME280;56723;42.694;23.286;2023-03-04T16:38:41;94651.25;;;7.30;84.98
69524;BME280;56723;42.694;23.286;2023-03-04T16:41:13;94654.78;;;7.29;84.50
69524;BME280;56723;42.694;23.286;2023-03-04T16:43:42;94652.50;;;7.26;85.15
69524;BME280;56723;42.694;23.286;2023-03-04T16:46:11;94667.16;;;7.26;84.93
69524;BME280;56723;42.694;23.286;2023-03-04T16:48:39;94653.16;;;7.20;85.28
69524;BME280;56723;42.694;23.286;2023-03-04T16:51:13;94671.84;;;7.22;85.48
69524;BME280;56723;42.694;23.286;2023-03-04T16:53:46;94658.97;;;7.22;86.15
69524;BME280;56723;42.694;23.286;2023-03-04T16:56:17;94658.16;;;7.22;85.80
69524;BME280;56723;42.694;23.286;2023-03-04T16:58:44;94661.84;;;7.19;85.87
69524;BME280;56723;42.694;23.286;2023-03-04T17:01:23;94655.66;;;7.12;86.37
69524;BME280;56723;42.694;23.286;2023-03-04T17:03:52;94658.53;;;7.09;86.18
69524;BME280;56723;42.694;23.286;2023-03-04T17:06:20;94658.53;;;7.09;87.26
69524;BME280;56723;42.694;23.286;2023-03-04T17:08:47;94657.41;;;7.04;86.60
69524;BME280;56723;42.694;23.286;2023-03-04T17:11:20;94656.59;;;7.03;87.39
69524;BME280;56723;42.694;23.286;2023-03-04T17:13:48;94657.56;;;7.02;86.87
69524;BME280;56723;42.694;23.286;2023-03-04T17:16:15;94664.47;;;7.02;86.52
69524;BME280;56723;42.694;23.286;2023-03-04T17:18:43;94668.16;;;6.99;86.60
69524;BME280;56723;42.694;23.286;2023-03-04T17:21:15;94659.13;;;6.95;88.87
69524;BME280;56723;42.694;23.286;2023-03-04T17:23:42;94655.59;;;6.96;87.85
69524;BME280;56723;42.694;23.286;2023-03-04T17:26:10;94658.53;;;7.01;87.80
69524;BME280;56723;42.694;23.286;2023-03-04T17:28:37;94657.72;;;7.01;87.73
69524;BME280;56723;42.694;23.286;2023-03-04T17:31:13;94660.13;;;7.02;88.93
69524;BME280;56723;42.694;23.286;2023-03-04T17:33:40;94648.16;;;6.93;87.65
69524;BME280;56723;42.694;23.286;2023-03-04T17:36:10;94663.66;;;7.01;88.46
69524;BME280;56723;42.694;23.286;2023-03-04T17:38:38;94664.47;;;7.02;88.01
69524;BME280;56723;42.694;23.286;2023-03-04T17:41:07;94666.69;;;6.97;88.10
69524;BME280;56723;42.694;23.286;2023-03-04T17:43:34;94676.34;;;6.94;88.62
69524;BME280;56723;42.694;23.286;2023-03-04T17:46:06;94676.47;;;6.93;88.58
69524;BME280;56723;42.694;23.286;2023-03-04T17:48:34;94670.00;;;6.89;88.71
69524;BME280;56723;42.694;23.286;2023-03-04T17:51:01;94678.41;;;6.91;88.40
69524;BME280;56723;42.694;23.286;2023-03-04T17:53:28;94679.34;;;6.90;89.67
69524;BME280;56723;42.694;23.286;2023-03-04T17:55:57;94668.06;;;6.83;89.62
69524;BME280;56723;42.694;23.286;2023-03-04T17:58:29;94666.78;;;6.87;90.58
69524;BME280;56723;42.694;23.286;2023-03-04T18:01:02;94654.69;;;6.79;90.58
69524;BME280;56723;42.694;23.286;2023-03-04T18:03:29;94670.00;;;6.89;88.75
69524;BME280;56723;42.694;23.286;2023-03-04T18:05:56;94676.94;;;6.88;89.08
69524;BME280;56723;42.694;23.286;2023-03-04T18:08:23;94673.88;;;6.85;89.24
69524;BME280;56723;42.694;23.286;2023-03-04T18:10:50;94675.50;;;6.86;88.47
69524;BME280;56723;42.694;23.286;2023-03-04T18:13:17;94680.94;;;6.83;88.80
69524;BME280;56723;42.694;23.286;2023-03-04T18:15:44;94675.78;;;6.83;89.11
69524;BME280;56723;42.694;23.286;2023-03-04T18:18:11;94679.31;;;6.82;89.35
69524;BME280;56723;42.694;23.286;2023-03-04T18:20:38;94674.97;;;6.82;88.54
69524;BME280;56723;42.694;23.286;2023-03-04T18:23:05;94664.31;;;6.77;88.57
69524;BME280;56723;42.694;23.286;2023-03-04T18:25:33;94661.53;;;6.71;88.53
69524;BME280;56723;42.694;23.286;2023-03-04T18:28:00;94672.84;;;6.78;88.44
69524;BME280;56723;42.694;23.286;2023-03-04T18:30:28;94664.91;;;6.71;87.88
69524;BME280;56723;42.694;23.286;2023-03-04T18:32:58;94665.84;;;6.70;88.08
69524;BME280;56723;42.694;23.286;2023-03-04T18:35:26;94688.88;;;6.72;88.82
69524;BME280;56723;42.694;23.286;2023-03-04T18:37:59;94676.00;;;6.72;88.80
69524;BME280;56723;42.694;23.286;2023-03-04T18:40:27;94663.75;;;6.66;88.92
69524;BME280;56723;42.694;23.286;2023-03-04T18:42:55;94676.66;;;6.74;88.77
69524;BME280;56723;42.694;23.286;2023-03-04T18:45:22;94676.66;;;6.74;88.91
69524;BME280;56723;42.694;23.286;2023-03-04T18:47:50;94673.00;;;6.76;89.01
69524;BME280;56723;42.694;23.286;2023-03-04T18:50:19;94673.13;;;6.75;89.81
69524;BME280;56723;42.694;23.286;2023-03-04T18:52:48;94665.56;;;6.73;89.68
69524;BME280;56723;42.694;23.286;2023-03-04T18:55:16;94673.81;;;6.77;89.78
69524;BME280;56723;42.694;23.286;2023-03-04T18:57:46;94666.22;;;6.75;90.04
69524;BME280;56723;42.694;23.286;2023-03-04T19:00:18;94679.47;;;6.80;89.43
69524;BME280;56723;42.694;23.286;2023-03-04T19:02:48;94669.31;;;6.79;90.49
69524;BME280;56723;42.694;23.286;2023-03-04T19:05:20;94675.13;;;6.81;91.53
69524;BME280;56723;42.694;23.286;2023-03-04T19:07:51;94677.06;;;6.87;90.24
69524;BME280;56723;42.694;23.286;2023-03-04T19:10:19;94680.31;;;6.89;88.99
69524;BME280;56723;42.694;23.286;2023-03-04T19:12:46;94679.03;;;6.85;89.04
69524;BME280;56723;42.694;23.286;2023-03-04T19:15:14;94684.66;;;6.88;88.76
69524;BME280;56723;42.694;23.286;2023-03-04T19:17:41;94685.31;;;6.90;88.91
69524;BME280;56723;42.694;23.286;2023-03-04T19:20:12;94682.22;;;6.87;89.13
69524;BME280;56723;42.694;23.286;2023-03-04T19:22:40;94689.31;;;6.85;89.37
69524;BME280;56723;42.694;23.286;2023-03-04T19:25:08;94681.91;;;6.82;90.76
69524;BME280;56723;42.694;23.286;2023-03-04T19:27:35;94679.63;;;6.79;91.91
69524;BME280;56723;42.694;23.286;2023-03-04T19:30:03;94684.75;;;6.79;92.36
69524;BME280;56723;42.694;23.286;2023-03-04T19:32:30;94676.78;;;6.64;91.75
69524;BME280;56723;42.694;23.286;2023-03-04T19:34:58;94686.16;;;6.73;91.78
69524;BME280;56723;42.694;23.286;2023-03-04T19:37:25;94692.13;;;6.74;92.44
69524;BME280;56723;42.694;23.286;2023-03-04T19:39:52;94691.47;;;6.72;92.86
69524;BME280;56723;42.694;23.286;2023-03-04T19:42:22;94686.25;;;6.64;93.59
69524;BME280;56723;42.694;23.286;2023-03-04T19:44:50;94687.66;;;6.58;93.64
69524;BME280;56723;42.694;23.286;2023-03-04T19:47:17;94701.03;;;6.62;94.66
69524;BME280;56723;42.694;23.286;2023-03-04T19:49:44;94692.00;;;6.57;95.37
69524;BME280;56723;42.694;23.286;2023-03-04T19:52:12;94698.75;;;6.58;95.16
69524;BME280;56723;42.694;23.286;2023-03-04T19:54:39;94692.28;;;6.54;95.39
69524;BME280;56723;42.694;23.286;2023-03-04T19:57:06;94692.59;;;6.51;95.04
69524;BME280;56723;42.694;23.286;2023-03-04T19:59:33;94692.91;;;6.48;94.60
69524;BME280;56723;42.694;23.286;2023-03-04T20:02:00;94695.31;;;6.50;93.93
69524;BME280;56723;42.694;23.286;2023-03-04T20:04:27;94686.72;;;6.41;93.72
69524;BME280;56723;42.694;23.286;2023-03-04T20:06:54;94684.59;;;6.37;93.20
69524;BME280;56723;42.694;23.286;2023-03-04T20:09:21;94693.63;;;6.41;92.44
69524;BME280;56723;42.694;23.286;2023-03-04T20:11:48;94688.25;;;6.34;92.50
69524;BME280;56723;42.694;23.286;2023-03-04T20:14:29;94690.41;;;6.39;92.69
69524;BME280;56723;42.694;23.286;2023-03-04T20:16:58;94695.41;;;6.40;93.21
69524;BME280;56723;42.694;23.286;2023-03-04T20:19:28;94685.69;;;6.34;92.10
69524;BME280;56723;42.694;23.286;2023-03-04T20:21:55;94689.72;;;6.37;91.45
69524;BME280;56723;42.694;23.286;2023-03-04T20:24:24;94689.88;;;6.35;91.49
69524;BME280;56723;42.694;23.286;2023-03-04T20:26:52;94687.75;;;6.31;91.71
69524;BME280;56723;42.694;23.286;2023-03-04T20:29:19;94686.28;;;6.28;91.92
69524;BME280;56723;42.694;23.286;2023-03-04T20:31:46;94688.19;;;6.26;91.29
69524;BME280;56723;42.694;23.286;2023-03-04T20:34:13;94685.63;;;6.26;91.35
69524;BME280;56723;42.694;23.286;2023-03-04T20:36:40;94683.63;;;6.20;90.92
69524;BME280;56723;42.694;23.286;2023-03-04T20:39:07;94692.31;;;6.19;90.92
69524;BME280;56723;42.694;23.286;2023-03-04T20:41:55;94689.72;;;6.19;90.53
69524;BME280;56723;42.694;23.286;2023-03-04T20:44:21;94693.63;;;6.23;90.58
69524;BME280;56723;42.694;23.286;2023-03-04T20:46:48;94695.41;;;6.22;90.14
69524;BME280;56723;42.694;23.286;2023-03-04T20:51:51;94689.06;;;6.17;88.41
69524;BME280;56723;42.694;23.286;2023-03-04T20:54:18;94692.31;;;6.19;88.14
69524;BME280;56723;42.694;23.286;2023-03-04T20:56:46;94690.16;;;6.14;88.57
69524;BME280;56723;42.694;23.286;2023-03-04T20:59:13;94698.03;;;6.13;88.36
69524;BME280;56723;42.694;23.286;2023-03-04T21:01:43;94688.03;;;6.10;88.15
69524;BME280;56723;42.694;23.286;2023-03-04T21:04:10;94687.53;;;6.06;87.79
69524;BME280;56723;42.694;23.286;2023-03-04T21:06:37;94684.16;;;6.06;87.98
69524;BME280;56723;42.694;23.286;2023-03-04T21:09:11;94682.81;;;6.02;88.80
69524;BME280;56723;42.694;23.286;2023-03-04T21:11:38;94672.13;;;5.97;88.73
69524;BME280;56723;42.694;23.286;2023-03-04T21:14:18;94676.84;;;6.01;88.57
69524;BME280;56723;42.694;23.286;2023-03-04T21:16:51;94681.84;;;6.03;88.71
69524;BME280;56723;42.694;23.286;2023-03-04T21:19:20;94675.38;;;5.99;88.65
69524;BME280;56723;42.694;23.286;2023-03-04T21:21:48;94667.66;;;5.99;88.47
69524;BME280;56723;42.694;23.286;2023-03-04T21:24:19;94665.69;;;5.93;88.44
69524;BME280;56723;42.694;23.286;2023-03-04T21:26:48;94674.56;;;5.98;88.66
69524;BME280;56723;42.694;23.286;2023-03-04T21:29:17;94672.13;;;5.97;89.04
69524;BME280;56723;42.694;23.286;2023-03-04T21:31:47;94668.25;;;5.93;89.07
69524;BME280;56723;42.694;23.286;2023-03-04T21:34:21;94669.88;;;5.94;89.14